Time;durP1;ratioP1;P1;durP2;ratioP2;P2;SDS_P1;SDS_P2;PMS_P1;PMS_P2;Temp;Humidity;BMP_temperature;BMP_pressure;BME280_temperature;BME280_humidity;BME280_pressure;Samples;Min_cycle;Max_cycle;Signal;HPM_P1;HPM_P2
2022/12/24 00:02:11;;;;;;;3.90;1.50;;;12.50;99.90;;;;;;5076150;28;20170;-70
2022/12/24 00:04:40;;;;;;;5.00;2.20;;;12.60;99.90;;;;;;5077601;28;20414;-70
2022/12/24 00:07:05;;;;;;;4.07;1.80;;;12.40;99.90;;;;;;5059182;28;20665;-70
2022/12/24 00:09:31;;;;;;;6.53;2.00;;;12.50;99.90;;;;;;5077538;28;20504;-70
2022/12/24 00:11:56;;;;;;;5.30;1.83;;;12.50;99.90;;;;;;5076604;28;20198;-69
2022/12/24 00:14:22;;;;;;;3.70;1.60;;;12.70;99.90;;;;;;5078660;28;20562;-69
2022/12/24 00:16:47;;;;;;;4.60;1.73;;;12.80;99.90;;;;;;5076238;28;20608;-70
2022/12/24 00:19:13;;;;;;;3.17;1.43;;;12.60;99.90;;;;;;5076025;28;20603;-69
2022/12/24 00:21:38;;;;;;;1.57;1.17;;;12.70;99.90;;;;;;5075500;28;20170;-69
2022/12/24 00:24:04;;;;;;;5.20;2.00;;;12.60;99.90;;;;;;5075959;28;20653;-69
2022/12/24 00:26:31;;;;;;;3.70;1.73;;;12.60;99.90;;;;;;5076135;28;20193;-68
2022/12/24 00:28:57;;;;;;;4.70;1.97;;;12.60;99.90;;;;;;5076010;28;20406;-68
2022/12/24 00:31:23;;;;;;;4.07;1.87;;;12.50;99.90;;;;;;5076112;28;20457;-68
2022/12/24 00:33:49;;;;;;;3.23;1.83;;;12.40;99.90;;;;;;5075755;28;20166;-68
2022/12/24 00:36:15;;;;;;;2.80;2.03;;;12.40;99.90;;;;;;5071465;28;20463;-69
2022/12/24 00:39:03;;;;;;;5.20;2.07;;;12.60;99.90;;;;;;5075742;28;20162;-69
2022/12/24 00:41:28;;;;;;;4.70;1.80;;;12.70;99.90;;;;;;5075317;28;20457;-69
2022/12/24 00:43:59;;;;;;;3.43;1.50;;;12.50;99.90;;;;;;5075430;28;20415;-69
2022/12/24 00:46:26;;;;;;;3.27;1.73;;;12.60;99.90;;;;;;5075130;28;20214;-68
2022/12/24 00:48:52;;;;;;;6.03;1.80;;;12.70;99.90;;;;;;5075638;28;20419;-69
2022/12/24 00:51:18;;;;;;;2.20;1.47;;;12.60;99.90;;;;;;5057164;28;20517;-69
2022/12/24 00:53:44;;;;;;;5.27;1.90;;;12.80;99.90;;;;;;5075409;28;20169;-68
2022/12/24 00:56:10;;;;;;;4.13;1.80;;;12.80;99.90;;;;;;5075443;28;20440;-69
2022/12/24 00:58:36;;;;;;;5.60;2.10;;;12.80;99.90;;;;;;5075228;28;20176;-69
2022/12/24 01:01:01;;;;;;;3.87;1.90;;;12.70;99.90;;;;;;5056719;28;20295;-68
2022/12/24 01:03:36;;;;;;;3.43;1.73;;;12.50;99.90;;;;;;5074692;28;20406;-69
2022/12/24 01:06:14;;;;;;;3.90;1.60;;;12.50;99.90;;;;;;5074627;28;20206;-69
2022/12/24 01:08:40;;;;;;;2.97;1.57;;;12.50;99.90;;;;;;5075844;28;20453;-69
2022/12/24 01:11:08;;;;;;;4.10;1.70;;;12.60;99.90;;;;;;5075152;28;20415;-69
2022/12/24 01:13:34;;;;;;;7.47;2.10;;;12.70;99.90;;;;;;5075343;28;20771;-69
2022/12/24 01:16:00;;;;;;;5.03;1.70;;;12.70;99.90;;;;;;5074954;28;20433;-69
2022/12/24 01:18:25;;;;;;;3.20;1.87;;;12.80;99.90;;;;;;5074927;28;20410;-69
2022/12/24 01:20:57;;;;;;;4.90;1.63;;;12.80;99.90;;;;;;5074238;28;20923;-69
2022/12/24 01:23:22;;;;;;;6.40;2.03;;;12.90;99.90;;;;;;5074627;28;20166;-69
2022/12/24 01:25:48;;;;;;;4.27;1.30;;;12.90;99.90;;;;;;5074313;28;20445;-69
2022/12/24 01:28:13;;;;;;;3.40;1.60;;;12.90;99.90;;;;;;5074296;28;20574;-69
2022/12/24 01:30:40;;;;;;;6.03;2.00;;;13.00;99.90;;;;;;5074857;28;20625;-69
2022/12/24 01:33:06;;;;;;;4.23;1.67;;;12.90;99.90;;;;;;5073214;28;20185;-69
2022/12/24 01:35:32;;;;;;;5.63;2.30;;;12.80;99.90;;;;;;5073309;28;20510;-69
2022/12/24 01:37:57;;;;;;;4.60;2.33;;;13.00;99.90;;;;;;5074296;28;20672;-69
2022/12/24 01:43:23;;;;;;;4.17;1.60;;;13.00;99.90;;;;;;5074929;28;20387;-69
2022/12/24 01:45:56;;;;;;;6.50;2.30;;;13.10;99.90;;;;;;5074767;28;20446;-69
2022/12/24 01:49:05;;;;;;;5.37;2.00;;;12.90;99.90;;;;;;5074243;28;20413;-69
2022/12/24 01:51:43;;;;;;;3.87;2.07;;;12.80;99.90;;;;;;5040168;28;20468;-69
2022/12/24 01:54:15;;;;;;;5.80;2.20;;;12.30;99.90;;;;;;5074586;28;20386;-69
2022/12/24 01:56:46;;;;;;;10.87;2.50;;;12.00;99.90;;;;;;5074472;28;20471;-70
2022/12/24 01:59:15;;;;;;;5.13;1.97;;;12.10;99.90;;;;;;5074376;28;20426;-69
2022/12/24 02:01:40;;;;;;;7.77;2.50;;;12.10;99.90;;;;;;5074032;28;20401;-69
2022/12/24 02:04:30;;;;;;;9.70;2.80;;;12.20;99.90;;;;;;5074155;28;20966;-69
2022/12/24 02:06:56;;;;;;;7.20;2.40;;;12.30;99.90;;;;;;5055434;28;20199;-69
2022/12/24 02:09:21;;;;;;;6.00;2.47;;;12.30;99.90;;;;;;5074072;28;20412;-69
2022/12/24 02:11:47;;;;;;;8.50;2.77;;;12.00;99.90;;;;;;5073697;28;20173;-69
2022/12/24 02:14:14;;;;;;;6.90;2.80;;;12.00;99.90;;;;;;5073635;28;20180;-69
2022/12/24 02:17:10;;;;;;;8.50;3.00;;;11.80;99.90;;;;;;5073592;28;20189;-68
2022/12/24 02:20:06;;;;;;;7.83;2.63;;;11.70;99.90;;;;;;5073780;28;20535;-69
2022/12/24 02:22:50;;;;;;;7.20;2.13;;;11.80;99.90;;;;;;5073384;28;20414;-69
2022/12/24 02:25:35;;;;;;;6.10;2.30;;;11.90;99.90;;;;;;5073741;28;20429;-68
2022/12/24 02:28:15;;;;;;;7.13;2.40;;;12.10;99.90;;;;;;5073726;28;20384;-69
2022/12/24 02:30:52;;;;;;;8.10;2.40;;;12.10;99.90;;;;;;5073723;28;20777;-69
2022/12/24 02:33:28;;;;;;;7.23;2.97;;;11.90;99.90;;;;;;5073375;28;20906;-69
2022/12/24 02:36:13;;;;;;;6.40;2.43;;;11.80;99.90;;;;;;5071270;28;20446;-69
2022/12/24 02:38:57;;;;;;;7.93;2.90;;;11.80;99.90;;;;;;5073694;28;20483;-69
2022/12/24 02:42:04;;;;;;;8.70;3.57;;;11.70;99.90;;;;;;5070044;28;20748;-69
2022/12/24 02:44:14;;;;;;;7.27;4.10;;;11.90;99.90;;;;;;5073115;28;20409;-69
2022/12/24 02:46:40;;;;;;;5.23;2.63;;;12.00;99.90;;;;;;5073102;28;20451;-69
2022/12/24 02:49:06;;;;;;;7.90;4.13;;;12.00;99.90;;;;;;5073778;28;20417;-69
2022/12/24 02:51:31;;;;;;;5.73;2.93;;;12.00;99.90;;;;;;5072698;28;20923;-70
2022/12/24 02:53:58;;;;;;;7.63;3.10;;;12.00;99.90;;;;;;5073424;28;20178;-69
2022/12/24 02:56:44;;;;;;;10.80;2.67;;;11.60;99.90;;;;;;5073287;28;20552;-69
2022/12/24 02:59:22;;;;;;;3.00;1.70;;;11.50;99.90;;;;;;5073620;28;20400;-69
2022/12/24 03:01:50;;;;;;;5.60;2.00;;;11.60;99.90;;;;;;5073168;28;20756;-69
2022/12/24 03:04:18;;;;;;;8.93;2.20;;;11.50;99.90;;;;;;5073017;28;20510;-69
2022/12/24 03:06:56;;;;;;;4.33;2.43;;;11.50;99.90;;;;;;5072429;28;20434;-69
2022/12/24 03:09:29;;;;;;;7.53;2.37;;;11.40;99.90;;;;;;5054960;28;20453;-69
2022/12/24 03:12:09;;;;;;;4.23;2.63;;;11.40;99.90;;;;;;5072894;28;20409;-69
2022/12/24 03:14:38;;;;;;;10.37;2.40;;;11.50;99.90;;;;;;5073248;28;20793;-69
2022/12/24 03:17:03;;;;;;;4.90;2.17;;;11.40;99.90;;;;;;5072824;28;20427;-69
2022/12/24 03:19:30;;;;;;;9.23;2.90;;;11.40;99.90;;;;;;5072897;28;20492;-69
2022/12/24 03:21:58;;;;;;;5.40;2.17;;;11.60;99.90;;;;;;5072373;28;20559;-69
2022/12/24 03:24:24;;;;;;;7.03;3.20;;;11.70;99.90;;;;;;5073015;28;20891;-69
2022/12/24 03:26:50;;;;;;;5.27;2.07;;;11.70;99.90;;;;;;5072831;28;20518;-69
2022/12/24 03:29:16;;;;;;;9.40;2.83;;;11.80;99.90;;;;;;5073063;28;20177;-69
2022/12/24 03:31:48;;;;;;;8.20;2.50;;;11.80;99.90;;;;;;5072813;28;20773;-69
2022/12/24 03:34:14;;;;;;;4.80;2.13;;;11.70;99.90;;;;;;5072996;28;20562;-69
2022/12/24 03:36:41;;;;;;;5.40;2.33;;;11.50;99.90;;;;;;5072121;28;20433;-70
2022/12/24 03:39:08;;;;;;;4.33;2.20;;;11.40;99.90;;;;;;5071508;28;20416;-69
2022/12/24 03:41:34;;;;;;;8.23;2.80;;;11.20;99.90;;;;;;5072834;28;20404;-69
2022/12/24 03:43:59;;;;;;;5.37;2.30;;;11.20;99.90;;;;;;5072810;28;20400;-69
2022/12/24 03:46:25;;;;;;;8.83;2.50;;;11.20;99.90;;;;;;5073131;28;20876;-69
2022/12/24 03:48:50;;;;;;;8.20;2.90;;;11.30;99.90;;;;;;5076092;28;20189;-69
2022/12/24 03:51:19;;;;;;;5.20;2.30;;;11.20;99.90;;;;;;5076592;28;20545;-69
2022/12/24 03:53:45;;;;;;;7.73;2.60;;;11.30;99.90;;;;;;5076013;28;20162;-69
2022/12/24 03:56:10;;;;;;;8.40;3.00;;;11.30;99.90;;;;;;5076515;28;20526;-69
2022/12/24 03:58:36;;;;;;;7.33;3.00;;;11.30;99.90;;;;;;5076289;28;20185;-69
2022/12/24 04:01:05;;;;;;;3.80;2.50;;;11.30;99.90;;;;;;5058271;28;20737;-69
2022/12/24 04:03:30;;;;;;;8.47;3.03;;;11.40;99.90;;;;;;5058242;28;20179;-69
2022/12/24 04:06:12;;;;;;;7.00;3.00;;;11.40;99.90;;;;;;5075266;28;20948;-69
2022/12/24 04:08:39;;;;;;;4.93;2.10;;;11.50;99.90;;;;;;5059740;28;20477;-69
2022/12/24 04:11:06;;;;;;;6.90;3.17;;;11.50;99.90;;;;;;5075996;28;20460;-70
2022/12/24 04:13:31;;;;;;;11.40;2.83;;;11.50;99.90;;;;;;5076008;28;20470;-69
2022/12/24 04:16:02;;;;;;;4.70;2.13;;;11.50;99.90;;;;;;5076100;28;20436;-69
2022/12/24 04:18:28;;;;;;;9.40;2.80;;;11.50;99.90;;;;;;5076196;28;20181;-69
2022/12/24 04:20:54;;;;;;;8.23;2.27;;;11.50;99.90;;;;;;5075596;28;20449;-70
2022/12/24 04:23:20;;;;;;;9.60;3.30;;;11.60;99.90;;;;;;5075982;28;20412;-69
2022/12/24 04:25:46;;;;;;;9.03;2.20;;;11.60;99.90;;;;;;5076097;28;20597;-69
2022/12/24 04:28:12;;;;;;;6.80;3.23;;;11.60;99.90;;;;;;5076017;28;20407;-69
2022/12/24 04:30:39;;;;;;;7.90;2.47;;;11.50;99.90;;;;;;5076128;28;20190;-70
2022/12/24 04:33:05;;;;;;;7.07;2.43;;;11.60;99.90;;;;;;5076096;28;20755;-70
2022/12/24 04:35:30;;;;;;;6.90;2.83;;;11.60;99.90;;;;;;5075548;28;20435;-70
2022/12/24 04:37:56;;;;;;;8.03;2.50;;;11.60;99.90;;;;;;5074296;28;20174;-70
2022/12/24 04:40:21;;;;;;;7.60;2.37;;;11.60;99.90;;;;;;5075372;28;20679;-69
2022/12/24 04:42:48;;;;;;;7.00;2.80;;;11.60;99.90;;;;;;5070529;28;20166;-69
2022/12/24 04:45:13;;;;;;;6.10;2.60;;;11.60;99.90;;;;;;5075286;28;20220;-70
2022/12/24 04:47:39;;;;;;;6.73;2.80;;;11.50;99.90;;;;;;5075322;28;20431;-68
2022/12/24 04:50:05;;;;;;;5.53;2.40;;;11.40;99.90;;;;;;5075581;28;20174;-69
2022/12/24 04:52:32;;;;;;;4.33;2.60;;;11.50;99.90;;;;;;5075605;28;20169;-69
2022/12/24 04:54:57;;;;;;;4.80;2.37;;;11.50;99.90;;;;;;5074736;28;20776;-69
2022/12/24 04:57:23;;;;;;;11.53;3.37;;;11.50;99.90;;;;;;5075141;28;20409;-69
2022/12/24 04:59:48;;;;;;;6.20;3.00;;;11.30;99.90;;;;;;5074373;28;20196;-69
2022/12/24 05:02:14;;;;;;;5.97;1.80;;;11.30;99.90;;;;;;5075065;28;20237;-69
2022/12/24 05:04:39;;;;;;;8.83;3.53;;;11.30;99.90;;;;;;5075090;28;20170;-69
2022/12/24 05:07:05;;;;;;;13.13;2.67;;;11.40;99.90;;;;;;5074943;28;20189;-69
2022/12/24 05:09:30;;;;;;;8.00;3.23;;;11.40;99.90;;;;;;5074604;28;20216;-68
2022/12/24 05:11:56;;;;;;;7.00;4.07;;;11.20;99.90;;;;;;5075068;28;20211;-68
2022/12/24 05:14:21;;;;;;;8.20;3.53;;;11.30;99.90;;;;;;5074988;28;20192;-69
2022/12/24 05:16:47;;;;;;;7.77;3.10;;;11.30;99.90;;;;;;5074863;28;20246;-69
2022/12/24 05:19:13;;;;;;;9.23;2.57;;;11.30;99.90;;;;;;5075276;28;20169;-69
2022/12/24 05:21:38;;;;;;;8.40;2.90;;;11.10;99.90;;;;;;5075099;28;20213;-69
2022/12/24 05:26:52;;;;;;;5.23;2.07;;;11.20;99.90;;;;;;5074666;28;20226;-69
2022/12/24 05:29:18;;;;;;;9.70;2.27;;;11.20;99.90;;;;;;5074533;28;20396;-69
2022/12/24 05:31:44;;;;;;;4.57;1.87;;;11.30;99.90;;;;;;5074262;28;20814;-69
2022/12/24 05:34:11;;;;;;;8.83;2.10;;;11.30;99.90;;;;;;5074537;28;20197;-69
2022/12/24 05:36:37;;;;;;;4.87;2.50;;;11.30;99.90;;;;;;5074656;28;20801;-69
2022/12/24 05:39:03;;;;;;;4.40;2.07;;;11.10;99.90;;;;;;5043121;28;20428;-69
2022/12/24 05:41:29;;;;;;;8.43;2.37;;;11.20;99.90;;;;;;5054557;28;20163;-69
2022/12/24 05:43:55;;;;;;;8.13;2.53;;;11.00;99.90;;;;;;5036491;28;20775;-69
2022/12/24 05:46:22;;;;;;;7.73;2.50;;;10.90;99.90;;;;;;5054127;28;20448;-69
2022/12/24 05:48:49;;;;;;;5.23;1.73;;;10.80;99.90;;;;;;5054208;28;20170;-69
2022/12/24 05:51:18;;;;;;;8.67;2.10;;;11.00;99.90;;;;;;5054296;28;20405;-69
2022/12/24 05:53:44;;;;;;;14.40;3.77;;;11.10;99.90;;;;;;5053618;28;20913;-69
2022/12/24 05:56:15;;;;;;;8.13;2.77;;;11.00;99.90;;;;;;5054166;28;20487;-69
2022/12/24 05:58:41;;;;;;;7.33;3.00;;;11.00;99.90;;;;;;5054364;28;20766;-69
2022/12/24 06:01:09;;;;;;;6.00;2.23;;;11.00;99.90;;;;;;5053258;28;20453;-70
2022/12/24 06:03:35;;;;;;;11.07;3.20;;;11.00;99.90;;;;;;5053419;28;20400;-69
2022/12/24 06:06:04;;;;;;;4.17;2.03;;;10.90;99.90;;;;;;5053847;28;20919;-69
2022/12/24 06:08:30;;;;;;;10.23;2.53;;;10.90;99.90;;;;;;5053366;28;20934;-69
2022/12/24 06:10:57;;;;;;;6.63;2.67;;;10.90;99.90;;;;;;5035821;28;20432;-69
2022/12/24 06:13:24;;;;;;;9.10;2.53;;;11.00;99.90;;;;;;5035763;28;20424;-69
2022/12/24 06:15:50;;;;;;;9.00;2.63;;;11.00;99.90;;;;;;5054015;28;20527;-69
2022/12/24 06:18:16;;;;;;;8.17;2.67;;;10.90;99.90;;;;;;5054128;28;20447;-69
2022/12/24 06:20:41;;;;;;;8.27;3.30;;;10.70;99.90;;;;;;5053792;28;20484;-69
2022/12/24 06:23:07;;;;;;;10.80;3.50;;;10.70;99.90;;;;;;5053401;28;20170;-68
2022/12/24 06:25:33;;;;;;;7.63;2.53;;;10.60;99.90;;;;;;5053215;28;20185;-68
2022/12/24 06:27:58;;;;;;;8.23;2.67;;;10.50;99.90;;;;;;5053506;28;20192;-69
2022/12/24 06:30:24;;;;;;;8.00;2.63;;;10.50;99.90;;;;;;5053345;28;20407;-69
2022/12/24 06:32:50;;;;;;;9.17;3.50;;;10.30;99.90;;;;;;5053418;28;20246;-69
2022/12/24 06:35:15;;;;;;;8.33;2.97;;;10.30;99.90;;;;;;5053375;28;20192;-68
2022/12/24 06:37:41;;;;;;;8.77;2.67;;;10.30;99.90;;;;;;5052992;28;20194;-68
2022/12/24 06:40:07;;;;;;;6.30;2.90;;;10.20;99.90;;;;;;5052286;28;20681;-69
2022/12/24 06:42:32;;;;;;;6.60;2.83;;;10.20;99.90;;;;;;5053838;28;20188;-69
2022/12/24 06:44:58;;;;;;;9.60;3.47;;;10.20;99.90;;;;;;5035143;28;20969;-69
2022/12/24 06:47:24;;;;;;;8.27;4.20;;;10.20;99.90;;;;;;5037667;28;20214;-69
2022/12/24 06:49:49;;;;;;;6.10;3.10;;;10.20;99.90;;;;;;5053181;28;20193;-69
2022/12/24 06:52:15;;;;;;;7.33;4.30;;;10.20;99.90;;;;;;5053094;28;20943;-69
2022/12/24 06:54:40;;;;;;;10.43;3.90;;;10.00;99.90;;;;;;5052772;28;20175;-69
2022/12/24 06:57:06;;;;;;;8.50;3.43;;;9.90;99.90;;;;;;5053108;28;20223;-69
2022/12/24 06:59:32;;;;;;;7.80;3.80;;;9.90;99.90;;;;;;5053357;28;20197;-69
2022/12/24 07:01:57;;;;;;;6.87;2.37;;;10.00;99.90;;;;;;5053140;28;20189;-69
2022/12/24 07:04:23;;;;;;;7.93;2.70;;;10.10;99.90;;;;;;5053440;28;20194;-69
2022/12/24 07:06:48;;;;;;;5.40;3.13;;;10.20;99.90;;;;;;5053241;28;20206;-69
2022/12/24 07:09:14;;;;;;;7.30;2.67;;;10.40;99.90;;;;;;5062844;28;20252;-69
2022/12/24 07:11:40;;;;;;;6.00;2.60;;;10.50;99.90;;;;;;5073479;28;20171;-69
2022/12/24 07:14:05;;;;;;;11.23;6.40;;;10.60;99.90;;;;;;5073295;28;20192;-69
2022/12/24 07:16:31;;;;;;;9.33;3.10;;;10.60;99.90;;;;;;5073194;28;20220;-69
2022/12/24 07:18:56;;;;;;;9.00;3.30;;;10.70;99.90;;;;;;5055172;28;20174;-68
2022/12/24 07:21:22;;;;;;;12.00;2.73;;;10.60;99.90;;;;;;5073441;28;20255;-68
2022/12/24 07:23:47;;;;;;;7.63;2.93;;;10.70;99.90;;;;;;5075601;28;20588;-68
2022/12/24 07:26:13;;;;;;;6.27;2.50;;;10.70;99.90;;;;;;5076883;28;20533;-68
2022/12/24 07:28:38;;;;;;;6.90;3.00;;;10.60;99.90;;;;;;5076933;28;20172;-69
2022/12/24 07:31:04;;;;;;;11.67;3.03;;;10.40;99.90;;;;;;5076947;28;20200;-70
2022/12/24 07:33:30;;;;;;;6.30;2.47;;;10.30;99.90;;;;;;5076801;28;20178;-70
2022/12/24 07:36:05;;;;;;;4.23;2.10;;;10.50;99.90;;;;;;5076990;28;20426;-70
2022/12/24 07:38:31;;;;;;;7.40;2.73;;;10.60;99.90;;;;;;5075438;28;20187;-69
2022/12/24 07:40:57;;;;;;;6.63;2.67;;;10.50;99.90;;;;;;5076277;28;20444;-69
2022/12/24 07:43:24;;;;;;;5.83;2.80;;;10.60;99.90;;;;;;5076914;28;20470;-69
2022/12/24 07:45:49;;;;;;;7.40;2.80;;;10.50;99.90;;;;;;5076457;28;20442;-69
2022/12/24 07:48:15;;;;;;;5.30;2.83;;;10.60;99.90;;;;;;5076942;28;20487;-69
2022/12/24 07:50:41;;;;;;;6.60;2.53;;;10.60;99.90;;;;;;5076423;28;20163;-69
2022/12/24 07:53:07;;;;;;;5.83;2.50;;;10.50;99.90;;;;;;5076323;28;20178;-69
2022/12/24 07:55:32;;;;;;;5.43;2.63;;;10.60;99.90;;;;;;5076061;28;20456;-69
2022/12/24 07:57:58;;;;;;;6.40;2.53;;;10.60;99.90;;;;;;5076633;28;20171;-69
2022/12/24 08:00:23;;;;;;;9.63;3.50;;;10.70;99.90;;;;;;5076657;28;20219;-69
2022/12/24 08:02:49;;;;;;;9.23;3.20;;;10.70;99.90;;;;;;5075278;28;20166;-69
2022/12/24 08:05:14;;;;;;;5.83;2.70;;;10.70;99.90;;;;;;5076100;28;20183;-69
2022/12/24 08:07:40;;;;;;;5.50;2.83;;;10.80;99.90;;;;;;5076383;28;20241;-69
2022/12/24 08:10:06;;;;;;;4.83;2.07;;;10.70;99.90;;;;;;5075989;28;20193;-69
2022/12/24 08:12:32;;;;;;;10.80;3.20;;;10.80;99.90;;;;;;5075934;28;20168;-69
2022/12/24 08:14:57;;;;;;;5.60;2.90;;;10.70;99.90;;;;;;5076163;28;20400;-69
2022/12/24 08:17:23;;;;;;;7.00;3.10;;;10.70;99.90;;;;;;5075636;28;20245;-69
2022/12/24 08:19:48;;;;;;;8.70;3.23;;;10.70;99.90;;;;;;5057872;28;20224;-69
2022/12/24 08:22:15;;;;;;;6.53;2.77;;;10.70;99.90;;;;;;5076418;28;20237;-69
2022/12/24 08:24:40;;;;;;;6.33;2.80;;;10.70;99.90;;;;;;5075925;28;20162;-69
2022/12/24 08:27:06;;;;;;;10.03;3.00;;;10.80;99.90;;;;;;5074620;28;20440;-69
2022/12/24 08:29:31;;;;;;;11.47;3.30;;;10.90;99.90;;;;;;5075811;28;20169;-69
2022/12/24 08:31:57;;;;;;;6.60;2.77;;;10.90;99.90;;;;;;5057553;28;20169;-69
2022/12/24 08:34:22;;;;;;;5.83;2.73;;;10.80;99.90;;;;;;5074250;28;20162;-69
2022/12/24 08:36:48;;;;;;;9.20;2.80;;;10.80;99.90;;;;;;5075641;28;20553;-69
2022/12/24 08:39:13;;;;;;;6.60;3.07;;;10.90;99.90;;;;;;5074854;28;20203;-69
2022/12/24 08:41:39;;;;;;;7.80;2.80;;;11.00;99.90;;;;;;5075498;28;20165;-68
2022/12/24 08:44:04;;;;;;;4.67;2.43;;;11.10;99.90;;;;;;5075761;28;20162;-69
2022/12/24 08:46:30;;;;;;;8.83;3.20;;;11.30;99.90;;;;;;5071990;28;20281;-69
2022/12/24 08:48:56;;;;;;;3.97;2.47;;;11.20;99.90;;;;;;5075653;28;20171;-69
2022/12/24 08:51:21;;;;;;;8.37;3.07;;;11.10;99.90;;;;;;5075459;28;20162;-69
2022/12/24 08:53:47;;;;;;;5.97;2.63;;;11.20;99.90;;;;;;5075763;28;20173;-69
2022/12/24 08:56:12;;;;;;;6.30;2.90;;;11.10;99.90;;;;;;5074758;28;20181;-69
2022/12/24 08:58:38;;;;;;;8.03;3.10;;;11.10;99.90;;;;;;5074287;28;20181;-69
2022/12/24 09:01:13;;;;;;;9.80;3.80;;;11.10;99.90;;;;;;5075346;28;20196;-69
2022/12/24 09:03:39;;;;;;;9.30;3.20;;;11.10;99.90;;;;;;5075122;28;20190;-69
2022/12/24 09:06:05;;;;;;;11.90;3.27;;;11.10;99.90;;;;;;5075383;28;20837;-69
2022/12/24 09:08:32;;;;;;;7.40;3.20;;;11.20;99.90;;;;;;5074940;28;20407;-69
2022/12/24 09:11:05;;;;;;;9.93;2.70;;;11.40;99.90;;;;;;5074651;28;20401;-69
2022/12/24 09:13:32;;;;;;;8.20;3.27;;;11.40;99.90;;;;;;5074719;28;20500;-69
2022/12/24 09:15:58;;;;;;;7.57;3.20;;;11.40;99.90;;;;;;5075006;28;20846;-69
2022/12/24 09:18:24;;;;;;;5.57;2.47;;;11.30;99.90;;;;;;5056832;28;20415;-69
2022/12/24 09:20:50;;;;;;;10.97;3.17;;;11.50;99.90;;;;;;5056529;28;20207;-69
2022/12/24 09:23:15;;;;;;;6.87;2.70;;;11.70;99.90;;;;;;5074667;28;20404;-69
2022/12/24 09:25:42;;;;;;;6.47;2.83;;;11.80;99.90;;;;;;5074391;28;20197;-69
2022/12/24 09:28:09;;;;;;;6.87;2.50;;;11.90;99.90;;;;;;5074366;28;20172;-69
2022/12/24 09:30:36;;;;;;;4.87;2.03;;;12.00;99.90;;;;;;5056986;28;20909;-67
2022/12/24 09:33:02;;;;;;;7.00;3.33;;;12.00;99.90;;;;;;5074773;28;20411;-67
2022/12/24 09:35:28;;;;;;;10.77;3.20;;;12.00;99.90;;;;;;5074515;28;20442;-68
2022/12/24 09:38:01;;;;;;;7.80;2.60;;;12.00;99.90;;;;;;5074442;28;20664;-68
2022/12/24 09:40:35;;;;;;;11.77;2.73;;;12.00;99.90;;;;;;5073402;28;20289;-68
2022/12/24 09:43:05;;;;;;;7.27;3.53;;;12.00;99.90;;;;;;5074967;28;20495;-69
2022/12/24 09:48:04;;;;;;;10.30;3.00;;;11.80;99.90;;;;;;5075304;22;20486;-69
2022/12/24 09:50:43;;;;;;;8.33;2.73;;;11.90;99.90;;;;;;5054225;28;20406;-68
2022/12/24 09:53:37;;;;;;;8.47;3.43;;;11.90;99.90;;;;;;5054315;28;20383;-69
2022/12/24 09:56:15;;;;;;;10.47;3.30;;;11.90;99.90;;;;;;5048126;28;20431;-70
2022/12/24 09:58:48;;;;;;;9.90;4.40;;;11.90;99.90;;;;;;5054518;28;20419;-70
2022/12/24 10:01:16;;;;;;;7.30;3.07;;;11.80;99.90;;;;;;5053818;28;20447;-70
2022/12/24 10:03:42;;;;;;;10.93;3.83;;;11.90;99.90;;;;;;5054309;28;20408;-70
2022/12/24 10:06:18;;;;;;;15.73;6.33;;;11.90;99.90;;;;;;5053987;28;20474;-70
2022/12/24 10:09:05;;;;;;;7.70;3.83;;;12.00;99.90;;;;;;5054051;28;20389;-68
2022/12/24 10:11:42;;;;;;;7.13;3.20;;;12.00;99.90;;;;;;5053615;28;20389;-71
2022/12/24 10:14:20;;;;;;;8.60;2.77;;;12.20;99.90;;;;;;5035959;28;20420;-69
2022/12/24 10:17:34;;;;;;;10.40;3.77;;;12.30;99.90;;;;;;5053687;28;20516;-70
2022/12/24 10:20:36;;;;;;;9.53;4.23;;;12.40;99.90;;;;;;5054091;28;20480;-69
2022/12/24 10:23:22;;;;;;;11.73;3.23;;;12.60;99.90;;;;;;5054251;28;20388;-70
2022/12/24 10:26:03;;;;;;;8.40;3.00;;;12.60;99.90;;;;;;5053950;28;20385;-71
2022/12/24 10:28:37;;;;;;;6.10;3.20;;;12.60;99.90;;;;;;5053989;28;20489;-71
2022/12/24 10:31:06;;;;;;;7.00;3.20;;;12.70;99.90;;;;;;5053887;28;20422;-71
2022/12/24 10:33:39;;;;;;;22.27;12.10;;;12.60;99.90;;;;;;5053713;28;20402;-70
2022/12/24 10:36:14;;;;;;;44.73;27.13;;;12.80;99.90;;;;;;5053737;28;20428;-70
2022/12/24 10:38:39;;;;;;;23.30;16.03;;;13.10;99.90;;;;;;5053669;28;20442;-70
2022/12/24 10:41:07;;;;;;;39.77;22.80;;;13.20;99.90;;;;;;5051974;28;20541;-70
2022/12/24 10:43:32;;;;;;;14.77;5.57;;;13.20;99.90;;;;;;5053639;28;20192;-70
2022/12/24 10:46:05;;;;;;;7.67;3.80;;;13.30;99.90;;;;;;5053217;28;20471;-70
2022/12/24 10:48:42;;;;;;;9.07;5.50;;;13.40;99.90;;;;;;5050233;28;20241;-70
2022/12/24 10:51:52;;;;;;;19.67;4.43;;;13.40;99.90;;;;;;5053746;28;20487;-70
2022/12/24 10:54:23;;;;;;;7.57;3.23;;;13.50;99.90;;;;;;5037994;28;20779;-70
2022/12/24 10:56:54;;;;;;;6.17;3.03;;;13.70;99.90;;;;;;5052425;28;20437;-69
2022/12/24 10:59:35;;;;;;;9.50;4.90;;;13.80;99.90;;;;;;5053199;28;20392;-69
2022/12/24 11:02:01;;;;;;;7.43;3.17;;;13.70;99.90;;;;;;5053634;28;20442;-69
2022/12/24 11:04:31;;;;;;;7.93;3.07;;;13.80;99.90;;;;;;5035321;28;20436;-70
2022/12/24 11:07:03;;;;;;;8.97;2.87;;;13.80;99.90;;;;;;5053264;28;20194;-70
2022/12/24 11:09:32;;;;;;;8.13;3.67;;;13.90;99.90;;;;;;5052791;28;20395;-69
2022/12/24 11:12:00;;;;;;;8.00;3.07;;;14.00;99.90;;;;;;5053037;28;20398;-70
2022/12/24 11:14:32;;;;;;;7.10;2.50;;;14.10;99.90;;;;;;5053111;28;20439;-71
2022/12/24 11:16:58;;;;;;;6.30;2.97;;;13.90;99.90;;;;;;5053212;28;20416;-71
2022/12/24 11:19:38;;;;;;;4.03;2.53;;;13.80;99.90;;;;;;5053085;28;20546;-70
2022/12/24 11:22:07;;;;;;;7.77;4.07;;;13.80;99.90;;;;;;5053412;28;20153;-70
2022/12/24 11:24:37;;;;;;;5.93;3.07;;;13.70;99.90;;;;;;5034730;28;20425;-70
2022/12/24 11:27:28;;;;;;;8.50;3.47;;;13.70;99.90;;;;;;5052233;28;20436;-70
2022/12/24 11:30:12;;;;;;;10.93;3.27;;;13.70;99.90;;;;;;5053378;28;20748;-70
2022/12/24 11:32:38;;;;;;;6.43;3.63;;;13.40;99.90;;;;;;5052860;28;20420;-70
2022/12/24 11:35:14;;;;;;;7.67;3.50;;;13.30;99.90;;;;;;5052942;28;20410;-70
2022/12/24 11:37:39;;;;;;;7.37;3.17;;;13.20;99.90;;;;;;5052802;28;20190;-69
2022/12/24 11:40:19;;;;;;;5.93;3.07;;;13.10;99.90;;;;;;5051005;28;20455;-68
2022/12/24 11:42:45;;;;;;;4.87;2.70;;;13.10;99.90;;;;;;5052910;28;20188;-69
2022/12/24 11:45:24;;;;;;;5.70;2.47;;;13.30;99.90;;;;;;5052985;28;20412;-69
2022/12/24 11:47:51;;;;;;;10.63;3.33;;;13.50;99.90;;;;;;5034764;28;20454;-69
2022/12/24 11:50:27;;;;;;;8.90;3.07;;;13.90;99.90;;;;;;5052253;28;20421;-69
2022/12/24 11:53:02;;;;;;;10.33;4.13;;;14.10;99.90;;;;;;5052856;28;20400;-69
2022/12/24 11:55:54;;;;;;;4.97;2.50;;;14.40;99.90;;;;;;5052022;28;20434;-69
2022/12/24 11:58:37;;;;;;;9.03;2.90;;;14.20;99.90;;;;;;5052917;28;20387;-69
2022/12/24 12:01:23;;;;;;;7.17;2.97;;;13.80;99.90;;;;;;5052875;28;20440;-70
2022/12/24 12:03:52;;;;;;;12.17;3.00;;;14.00;99.90;;;;;;5052697;28;20800;-70
2022/12/24 12:06:39;;;;;;;8.40;3.53;;;14.30;99.90;;;;;;5052402;28;20417;-70
2022/12/24 12:09:30;;;;;;;7.03;2.87;;;14.50;99.90;;;;;;5036109;28;20425;-70
2022/12/24 12:12:10;;;;;;;7.47;2.90;;;14.40;99.90;;;;;;5044905;28;20416;-71
2022/12/24 12:14:45;;;;;;;9.40;3.00;;;14.50;99.90;;;;;;5038380;28;20441;-70
2022/12/24 12:17:33;;;;;;;8.70;2.93;;;14.80;99.90;;;;;;5056629;28;20457;-71
2022/12/24 12:20:06;;;;;;;9.03;3.13;;;15.10;99.90;;;;;;5038109;28;20533;-71
2022/12/24 12:22:39;;;;;;;8.67;3.27;;;15.30;99.90;;;;;;5056080;28;20508;-71
2022/12/24 12:25:16;;;;;;;8.30;2.80;;;15.30;99.90;;;;;;5056322;28;20472;-71
2022/12/24 12:27:44;;;;;;;6.43;2.67;;;15.00;99.90;;;;;;5056217;28;20834;-71
2022/12/24 12:30:16;;;;;;;10.27;3.20;;;14.60;99.90;;;;;;5055804;28;20411;-70
2022/12/24 12:32:52;;;;;;;6.37;3.33;;;14.60;99.90;;;;;;5055779;28;20390;-70
2022/12/24 12:35:22;;;;;;;6.10;2.77;;;14.50;99.90;;;;;;5056033;28;20389;-69
2022/12/24 12:37:57;;;;;;;10.20;3.40;;;14.50;99.90;;;;;;5055360;28;20832;-70
2022/12/24 12:40:50;;;;;;;6.90;3.10;;;14.20;99.90;;;;;;5054020;28;20447;-68
2022/12/24 12:43:36;;;;;;;11.80;3.87;;;13.80;99.90;;;;;;5015157;28;20420;-69
2022/12/24 12:46:25;;;;;;;7.70;3.17;;;13.90;99.90;;;;;;5055785;28;20441;-70
2022/12/24 12:49:15;;;;;;;10.17;2.93;;;13.80;99.90;;;;;;5055647;28;20415;-70
2022/12/24 12:51:54;;;;;;;8.87;3.10;;;13.90;99.90;;;;;;5037772;28;20410;-70
2022/12/24 12:55:01;;;;;;;9.13;3.53;;;13.80;99.90;;;;;;5052847;28;20434;-69
2022/12/24 12:57:34;;;;;;;8.60;3.23;;;13.80;99.90;;;;;;5054697;28;21001;-69
2022/12/24 13:00:05;;;;;;;8.40;3.20;;;13.80;99.90;;;;;;5055429;28;20456;-69
2022/12/24 13:03:04;;;;;;;8.60;3.67;;;14.10;99.90;;;;;;5055416;28;20937;-70
2022/12/24 13:05:53;;;;;;;13.77;4.17;;;14.20;99.90;;;;;;5054199;28;20773;-69
2022/12/24 13:08:34;;;;;;;16.43;4.63;;;14.50;99.90;;;;;;5055668;28;20381;-69
2022/12/24 13:11:10;;;;;;;6.00;3.20;;;14.50;99.90;;;;;;5055135;28;20931;-69